Time;durP1;ratioP1;P1;durP2;ratioP2;P2;SDS_P1;SDS_P2;PMS_P1;PMS_P2;Temp;Humidity;BMP_temperature;BMP_pressure;BME280_temperature;BME280_humidity;BME280_pressure;Samples;Min_cycle;Max_cycle;Signal;HPM_P1;HPM_P2
2022/07/22 00:00:24;;;;;;;11.18;4.40;;;;;;;17.26;79.13;101940.03;3596635;39;20086;-63
2022/07/22 00:02:50;;;;;;;6.72;4.18;;;;;;;17.24;79.42;101942.00;3600419;39;21305;-63
2022/07/22 00:05:16;;;;;;;10.80;4.28;;;;;;;16.64;79.84;101844.88;3600698;39;20053;-64
2022/07/22 00:07:41;;;;;;;8.38;4.25;;;;;;;17.22;79.69;101938.53;3598315;39;20404;-63
2022/07/22 00:10:10;;;;;;;8.15;4.40;;;;;;;17.23;80.34;101940.25;3598605;39;20059;-64
2022/07/22 00:12:38;;;;;;;7.30;4.38;;;;;;;17.23;79.82;101931.25;3598631;39;20297;-63
2022/07/22 00:15:06;;;;;;;10.90;4.45;;;;;;;17.23;79.88;101937.56;3598268;39;20603;-63
2022/07/22 00:17:31;;;;;;;9.35;4.35;;;;;;;17.24;80.04;101935.69;3599188;39;20381;-63
2022/07/22 00:19:57;;;;;;;12.02;5.03;;;;;;;17.22;80.44;101933.09;3596899;39;20085;-63
2022/07/22 00:22:23;;;;;;;8.15;4.75;;;;;;;17.13;79.89;101917.47;3596146;39;20477;-63
2022/07/22 00:24:48;;;;;;;9.88;5.07;;;;;;;17.23;80.04;101929.41;3598054;39;20098;-63
2022/07/22 00:27:14;;;;;;;7.65;5.00;;;;;;;17.24;80.57;101935.69;3597616;39;20102;-63
2022/07/22 00:29:39;;;;;;;10.77;5.40;;;;;;;17.27;80.20;101936.34;3598037;39;20056;-63
2022/07/22 00:32:05;;;;;;;11.57;5.85;;;;;;;17.27;80.36;101936.34;3597137;39;20060;-64
2022/07/22 00:34:31;;;;;;;9.65;4.93;;;;;;;17.26;79.95;101939.19;3597534;39;20067;-64
2022/07/22 00:36:56;;;;;;;9.88;5.10;;;;;;;17.26;80.61;101928.31;3587732;39;20539;-64
2022/07/22 00:39:22;;;;;;;9.98;5.25;;;;;;;17.01;80.76;101880.31;3598520;39;20070;-63
2022/07/22 00:41:49;;;;;;;13.63;5.60;;;;;;;16.98;79.80;101872.38;3595773;39;20063;-63
2022/07/22 00:44:15;;;;;;;8.05;5.30;;;;;;;17.25;80.49;101916.53;3596624;39;20125;-63
2022/07/22 00:46:41;;;;;;;13.95;5.38;;;;;;;17.33;80.38;101929.59;3597952;39;20064;-63
2022/07/22 00:49:09;;;;;;;8.68;4.80;;;;;;;17.36;80.47;101932.97;3598305;39;20405;-63
2022/07/22 00:51:39;;;;;;;7.85;5.00;;;;;;;17.28;80.13;101913.59;3596917;39;20333;-63
2022/07/22 00:54:05;;;;;;;9.40;4.80;;;;;;;17.36;79.75;101922.09;3597348;39;20040;-64
2022/07/22 00:56:31;;;;;;;7.10;4.80;;;;;;;17.34;80.28;101924.03;3596862;39;20051;-63
2022/07/22 00:59:02;;;;;;;10.18;5.43;;;;;;;17.33;80.18;101914.16;3595242;39;20516;-63
2022/07/22 01:01:28;;;;;;;12.27;4.85;;;;;;;17.34;80.21;101913.16;3598473;39;20417;-63
2022/07/22 01:03:54;;;;;;;8.38;5.20;;;;;;;17.33;80.36;101914.16;3595701;39;20456;-64
2022/07/22 01:06:20;;;;;;;10.50;5.30;;;;;;;17.31;79.97;101909.81;3597329;39;20409;-63
2022/07/22 01:08:46;;;;;;;11.35;5.00;;;;;;;17.31;80.80;101916.09;3597627;39;20043;-64
2022/07/22 01:11:19;;;;;;;9.13;4.93;;;;;;;17.33;80.55;101913.28;3599439;39;20051;-64
2022/07/22 01:13:46;;;;;;;9.07;4.80;;;;;;;17.35;80.11;101912.19;3597998;39;20056;-65
2022/07/22 01:16:14;;;;;;;10.32;4.85;;;;;;;17.28;80.49;101894.59;3594935;39;20054;-63
2022/07/22 01:18:41;;;;;;;9.13;4.80;;;;;;;17.27;79.94;101898.28;3596763;39;20059;-63
2022/07/22 01:21:09;;;;;;;9.00;5.10;;;;;;;17.29;79.45;101907.22;3600506;39;20398;-64
2022/07/22 01:23:35;;;;;;;9.82;5.15;;;;;;;16.62;80.41;101792.56;3595915;39;20107;-64
2022/07/22 01:26:02;;;;;;;13.02;5.68;;;;;;;17.23;79.80;101902.22;3600814;39;20059;-64
2022/07/22 01:28:28;;;;;;;10.80;5.32;;;;;;;17.28;79.74;101902.72;3598671;39;20056;-64
2022/07/22 01:30:54;;;;;;;11.20;4.88;;;;;;;17.29;80.07;101907.22;3597148;39;20082;-63
2022/07/22 01:33:21;;;;;;;13.68;5.88;;;;;;;17.16;80.04;101881.91;3596052;39;20125;-64
2022/07/22 01:35:48;;;;;;;12.50;5.50;;;;;;;17.26;79.81;101907.44;3596518;39;20058;-63
2022/07/22 01:38:15;;;;;;;11.85;5.40;;;;;;;17.21;79.40;101906.03;3596702;39;20052;-63
2022/07/22 01:40:42;;;;;;;11.07;5.10;;;;;;;17.16;79.78;101895.50;3596006;39;20058;-63
2022/07/22 01:43:09;;;;;;;14.15;5.70;;;;;;;17.09;79.48;101905.91;3594939;39;20067;-64
2022/07/22 01:45:35;;;;;;;12.45;5.50;;;;;;;17.01;80.00;101910.19;3595481;39;20065;-64
2022/07/22 01:48:02;;;;;;;11.75;4.82;;;;;;;16.98;80.59;101904.97;3595877;39;20059;-63
2022/07/22 01:50:28;;;;;;;10.73;5.38;;;;;;;16.88;80.49;101908.34;3594120;39;20104;-63
2022/07/22 01:52:54;;;;;;;12.13;5.28;;;;;;;16.82;81.26;101918.78;3596665;39;20067;-63
2022/07/22 01:55:20;;;;;;;9.95;5.18;;;;;;;16.76;80.92;101920.06;3595113;39;20429;-63
2022/07/22 01:57:46;;;;;;;12.18;5.38;;;;;;;16.71;81.23;101923.09;3596104;39;20048;-63
2022/07/22 02:00:13;;;;;;;10.35;5.53;;;;;;;16.69;81.22;101919.59;3597238;39;20112;-64
2022/07/22 02:02:38;;;;;;;8.60;5.13;;;;;;;16.37;81.14;101870.28;3596595;39;20488;-64
2022/07/22 02:05:06;;;;;;;11.35;5.78;;;;;;;16.61;82.59;101908.41;3595990;39;20087;-63
2022/07/22 02:07:32;;;;;;;12.38;6.40;;;;;;;16.59;81.75;101906.78;3595235;39;20051;-63
2022/07/22 02:09:58;;;;;;;13.70;5.75;;;;;;;16.55;82.40;101910.69;3597481;39;20653;-63
2022/07/22 02:12:23;;;;;;;11.65;6.43;;;;;;;16.53;82.74;101908.09;3598658;39;20378;-63
2022/07/22 02:14:49;;;;;;;16.20;6.88;;;;;;;16.55;82.21;101910.69;3588153;39;20089;-63
2022/07/22 02:17:16;;;;;;;11.13;6.68;;;;;;;16.38;82.77;101874.72;3596046;39;20063;-63
2022/07/22 02:19:42;;;;;;;11.82;6.53;;;;;;;16.56;82.88;101896.16;3595884;39;20043;-63
2022/07/22 02:22:07;;;;;;;12.05;6.28;;;;;;;16.58;83.35;101905.03;3599253;39;20071;-63
2022/07/22 02:24:33;;;;;;;14.10;6.68;;;;;;;16.59;83.36;101907.66;3594972;39;20092;-63
2022/07/22 02:26:59;;;;;;;14.30;7.00;;;;;;;16.58;83.09;101910.47;3596308;39;20067;-63
2022/07/22 02:29:26;;;;;;;15.43;7.28;;;;;;;16.60;83.19;101898.53;3598421;39;20120;-65
2022/07/22 02:31:51;;;;;;;13.20;6.68;;;;;;;16.63;82.86;101905.59;3598521;39;20039;-66
2022/07/22 02:34:17;;;;;;;12.98;6.63;;;;;;;16.66;83.01;101899.94;3599083;39;20073;-65
2022/07/22 02:36:43;;;;;;;13.32;6.65;;;;;;;16.72;83.40;101904.94;3597117;39;20306;-65
2022/07/22 02:39:08;;;;;;;20.98;7.40;;;;;;;16.67;82.60;101898.97;3599849;39;20087;-65
2022/07/22 02:41:34;;;;;;;16.50;6.82;;;;;;;16.70;83.27;101904.19;3587117;39;20093;-65
2022/07/22 02:43:59;;;;;;;10.77;6.75;;;;;;;16.73;83.22;101903.97;3596379;39;20067;-65
2022/07/22 02:46:30;;;;;;;12.88;6.78;;;;;;;16.76;83.13;101903.78;3599609;39;20062;-65
2022/07/22 02:48:57;;;;;;;14.82;7.05;;;;;;;16.78;83.12;101896.41;3597211;39;20136;-65
2022/07/22 02:51:22;;;;;;;17.42;6.57;;;;;;;16.82;82.77;101892.47;3598400;39;20047;-65
2022/07/22 02:53:48;;;;;;;12.98;7.15;;;;;;;16.84;82.44;101889.66;3598588;39;20103;-65
2022/07/22 02:56:14;;;;;;;13.82;6.65;;;;;;;16.85;82.51;101894.97;3597758;39;20054;-65
2022/07/22 02:58:40;;;;;;;12.23;6.38;;;;;;;16.87;82.60;101890.31;3597936;39;20074;-65
2022/07/22 03:01:07;;;;;;;12.15;6.68;;;;;;;16.86;82.51;101896.72;3598070;39;20053;-65
2022/07/22 03:03:33;;;;;;;12.70;6.53;;;;;;;16.88;82.47;101883.91;3596655;39;20058;-65
2022/07/22 03:05:59;;;;;;;13.43;6.47;;;;;;;16.91;81.76;101878.25;3597360;39;21376;-65
2022/07/22 03:08:25;;;;;;;15.07;6.93;;;;;;;16.92;81.72;101881.81;3589885;39;20294;-64
2022/07/22 03:10:51;;;;;;;12.18;6.03;;;;;;;16.91;81.69;101880.09;3599591;39;20132;-64
2022/07/22 03:13:17;;;;;;;11.55;6.28;;;;;;;16.94;82.21;101879.88;3601074;39;20397;-64
2022/07/22 03:15:43;;;;;;;12.35;6.97;;;;;;;16.95;81.94;101870.75;3599630;39;20062;-64
2022/07/22 03:18:08;;;;;;;11.77;6.45;;;;;;;16.96;81.77;101874.31;3597357;39;20051;-64
2022/07/22 03:20:34;;;;;;;14.95;6.78;;;;;;;17.00;81.96;101868.56;3598197;39;20443;-64
2022/07/22 03:23:00;;;;;;;14.38;6.63;;;;;;;17.00;81.24;101873.13;3599253;39;20060;-65
2022/07/22 03:25:25;;;;;;;16.98;7.13;;;;;;;16.97;81.72;101873.34;3597308;39;20055;-65
2022/07/22 03:27:51;;;;;;;17.90;7.18;;;;;;;16.98;81.51;101877.81;3596156;39;20124;-65
2022/07/22 03:30:17;;;;;;;13.05;6.88;;;;;;;16.94;81.45;101878.03;3597179;39;20120;-64
2022/07/22 03:32:44;;;;;;;13.52;6.28;;;;;;;16.94;81.34;101877.16;3597084;39;20067;-65
2022/07/22 03:35:11;;;;;;;11.90;6.43;;;;;;;16.97;81.62;101868.81;3597298;39;20063;-65
2022/07/22 03:37:37;;;;;;;15.02;6.43;;;;;;;16.97;81.06;101866.09;3595376;39;20052;-65
2022/07/22 03:40:04;;;;;;;13.68;6.63;;;;;;;16.94;81.32;101871.72;3597624;39;20302;-64
2022/07/22 03:42:29;;;;;;;14.68;6.50;;;;;;;16.95;80.98;101870.75;3596467;39;20047;-65
2022/07/22 03:44:55;;;;;;;13.00;6.75;;;;;;;16.96;80.60;101872.47;3597113;39;20512;-65
2022/07/22 03:47:22;;;;;;;15.48;6.43;;;;;;;16.92;80.76;101888.13;3599186;39;20067;-65
2022/07/22 03:49:49;;;;;;;15.63;6.65;;;;;;;16.93;80.86;101884.41;3594976;39;20060;-65
2022/07/22 03:52:15;;;;;;;10.45;6.15;;;;;;;16.93;81.01;101879.00;3598462;39;20117;-64
2022/07/22 03:54:42;;;;;;;11.43;5.88;;;;;;;16.82;80.62;101868.03;3596965;39;20059;-65
2022/07/22 03:57:09;;;;;;;12.23;6.25;;;;;;;16.89;81.53;101880.19;3594283;39;20069;-65
2022/07/22 03:59:35;;;;;;;12.70;6.20;;;;;;;16.95;81.85;101881.63;3598424;39;20053;-65
2022/07/22 04:02:02;;;;;;;12.52;6.57;;;;;;;16.95;80.67;101895.19;3597962;39;20107;-65
2022/07/22 04:04:28;;;;;;;12.80;6.47;;;;;;;16.92;81.86;101899.00;3597918;39;20132;-65
2022/07/22 04:06:53;;;;;;;11.00;6.60;;;;;;;16.85;81.56;101892.25;3597393;39;20363;-65
2022/07/22 04:09:20;;;;;;;13.43;6.63;;;;;;;16.80;82.33;101880.00;3596606;39;20059;-65
2022/07/22 04:11:46;;;;;;;10.75;6.30;;;;;;;16.87;82.13;101889.44;3598205;39;20094;-65
2022/07/22 04:14:12;;;;;;;12.95;6.80;;;;;;;16.81;81.87;101885.31;3599143;39;20058;-64
2022/07/22 04:16:38;;;;;;;11.77;7.07;;;;;;;16.84;82.54;101890.53;3598663;39;20339;-65
2022/07/22 04:19:04;;;;;;;15.13;6.50;;;;;;;16.95;81.72;101900.63;3599354;39;20059;-64
2022/07/22 04:21:30;;;;;;;12.20;6.82;;;;;;;16.92;81.89;101890.84;3590462;39;20059;-65
2022/07/22 04:23:56;;;;;;;15.35;6.43;;;;;;;16.96;82.22;101899.63;3598251;39;20043;-65
2022/07/22 04:26:22;;;;;;;13.85;6.63;;;;;;;16.99;82.35;101893.13;3597993;39;20055;-65
2022/07/22 04:28:48;;;;;;;11.20;7.00;;;;;;;17.02;81.68;101892.91;3598477;39;20125;-65
2022/07/22 04:31:13;;;;;;;14.82;7.50;;;;;;;17.05;81.85;101896.25;3597158;39;20564;-65
2022/07/22 04:33:39;;;;;;;12.52;6.88;;;;;;;17.05;81.18;101898.13;3596506;39;20059;-65
2022/07/22 04:36:05;;;;;;;11.82;7.13;;;;;;;16.93;80.95;101876.28;3598236;39;20115;-64
2022/07/22 04:38:31;;;;;;;13.15;7.45;;;;;;;17.01;81.50;101880.31;3598518;39;20060;-64
2022/07/22 04:40:57;;;;;;;14.82;7.20;;;;;;;17.02;80.73;101879.31;3599906;39;20075;-64
2022/07/22 04:43:23;;;;;;;12.45;8.02;;;;;;;17.04;81.41;101880.09;3597821;39;20056;-63
2022/07/22 04:45:49;;;;;;;15.90;8.05;;;;;;;16.82;81.10;101851.75;3599026;39;20135;-64
2022/07/22 04:48:16;;;;;;;13.77;7.95;;;;;;;16.84;81.30;101849.81;3597839;39;20058;-63
2022/07/22 04:50:42;;;;;;;14.40;7.70;;;;;;;17.06;81.10;101886.25;3596334;39;20058;-63
2022/07/22 04:53:07;;;;;;;15.48;8.02;;;;;;;17.08;80.91;101881.59;3597476;39;20054;-62
2022/07/22 04:55:33;;;;;;;10.80;6.97;;;;;;;17.09;80.67;101881.47;3589718;39;20097;-62
2022/07/22 04:57:58;;;;;;;14.60;7.65;;;;;;;17.07;80.25;101875.28;3598871;39;20436;-62
2022/07/22 05:00:24;;;;;;;14.98;8.32;;;;;;;17.09;80.88;101875.16;3595872;39;20078;-62
2022/07/22 05:02:51;;;;;;;14.35;7.90;;;;;;;17.09;81.44;101875.16;3596647;39;20051;-61
2022/07/22 05:05:16;;;;;;;11.93;7.93;;;;;;;17.10;81.13;101879.66;3586703;39;20059;-64
2022/07/22 05:07:42;;;;;;;10.52;7.97;;;;;;;17.10;81.88;101874.22;3597324;39;20135;-64
2022/07/22 05:10:09;;;;;;;16.42;8.82;;;;;;;17.15;81.73;101875.59;3596926;39;20066;-63
2022/07/22 05:12:35;;;;;;;15.00;8.75;;;;;;;17.16;81.96;101871.06;3598108;39;20043;-64
2022/07/22 05:15:01;;;;;;;12.35;8.15;;;;;;;17.16;81.37;101874.63;3597082;39;20060;-64
2022/07/22 05:17:26;;;;;;;11.07;8.35;;;;;;;17.21;81.39;101874.28;3595964;39;20420;-63
2022/07/22 05:19:52;;;;;;;15.13;8.77;;;;;;;17.24;81.13;101871.34;3597932;39;20067;-64
2022/07/22 05:22:17;;;;;;;19.33;9.65;;;;;;;17.25;81.46;101873.06;3598150;39;20103;-64
2022/07/22 05:24:43;;;;;;;13.70;8.82;;;;;;;17.28;81.20;101867.41;3597932;39;20116;-64
2022/07/22 05:27:09;;;;;;;14.40;9.52;;;;;;;17.24;81.33;101871.34;3597265;39;20043;-64
2022/07/22 05:29:34;;;;;;;12.38;9.60;;;;;;;17.33;81.28;101873.38;3597224;39;20058;-64
2022/07/22 05:32:00;;;;;;;15.00;9.40;;;;;;;17.37;80.63;101868.59;3595166;39;20619;-64
2022/07/22 05:34:26;;;;;;;13.70;9.45;;;;;;;17.39;80.23;101872.06;3598691;39;20071;-64
2022/07/22 05:36:51;;;;;;;14.70;8.90;;;;;;;17.40;80.14;101868.34;3596519;39;20052;-64
2022/07/22 05:39:18;;;;;;;15.95;9.13;;;;;;;17.38;80.77;101865.78;3598374;39;20258;-63
2022/07/22 05:41:43;;;;;;;12.70;8.88;;;;;;;17.43;80.20;101880.88;3598169;39;20121;-63
2022/07/22 05:44:09;;;;;;;18.25;8.55;;;;;;;17.44;79.68;101877.16;3597141;39;20059;-64
2022/07/22 05:46:35;;;;;;;17.35;9.32;;;;;;;17.44;79.92;101878.00;3598106;39;20398;-64
2022/07/22 05:49:00;;;;;;;15.82;9.10;;;;;;;17.53;80.71;101888.22;3597062;39;20665;-63
2022/07/22 05:51:26;;;;;;;15.75;8.38;;;;;;;17.61;79.65;101876.78;3597921;39;20047;-63
2022/07/22 05:53:51;;;;;;;12.00;8.02;;;;;;;17.66;79.69;101882.72;3596823;39;20063;-64
2022/07/22 05:56:17;;;;;;;12.10;7.85;;;;;;;17.72;79.39;101884.97;3599561;39;20064;-64
2022/07/22 05:58:43;;;;;;;14.98;8.38;;;;;;;17.80;80.11;101877.16;3598183;39;20050;-64
2022/07/22 06:01:10;;;;;;;11.32;7.68;;;;;;;17.66;79.01;101843.78;3597069;39;20055;-64
2022/07/22 06:03:36;;;;;;;14.20;7.78;;;;;;;17.97;78.81;101880.44;3599365;39;20060;-63
2022/07/22 06:06:04;;;;;;;13.63;8.30;;;;;;;18.01;78.92;101871.91;3600220;39;20067;-64
2022/07/22 06:08:31;;;;;;;12.95;7.70;;;;;;;18.06;78.34;101885.19;3599004;39;20117;-64
2022/07/22 06:10:59;;;;;;;11.55;6.93;;;;;;;18.17;77.25;101887.94;3599873;39;20124;-64
2022/07/22 06:13:25;;;;;;;11.75;5.50;;;;;;;18.23;74.91;101892.91;3600812;39;20054;-64
2022/07/22 06:15:51;;;;;;;17.60;6.13;;;;;;;18.36;76.31;101886.53;3599846;39;20202;-64
2022/07/22 06:18:17;;;;;;;13.00;6.28;;;;;;;18.42;74.19;101891.47;3600770;39;20914;-63
2022/07/22 06:20:44;;;;;;;9.75;6.25;;;;;;;18.52;74.02;101882.50;3601091;39;20047;-64
2022/07/22 06:23:09;;;;;;;13.05;5.82;;;;;;;18.58;74.26;101880.25;3592739;39;20056;-64
2022/07/22 06:25:35;;;;;;;11.15;5.63;;;;;;;18.65;73.87;101881.50;3598720;39;20078;-64
2022/07/22 06:28:01;;;;;;;11.55;5.43;;;;;;;18.77;73.68;101876.00;3597416;39;20044;-63
2022/07/22 06:30:26;;;;;;;13.88;6.07;;;;;;;18.78;71.43;101877.72;3600951;39;20062;-64
2022/07/22 06:32:52;;;;;;;12.85;5.78;;;;;;;18.84;72.50;101879.09;3596560;39;20063;-63
2022/07/22 06:35:18;;;;;;;9.00;4.90;;;;;;;18.93;72.04;101880.19;3597702;39;20069;-63
2022/07/22 06:37:44;;;;;;;10.48;5.68;;;;;;;19.05;71.37;101873.75;3599266;39;20059;-63
2022/07/22 06:40:11;;;;;;;12.80;5.70;;;;;;;19.11;70.96;101858.78;3597303;39;20063;-64
2022/07/22 06:42:37;;;;;;;6.22;3.28;;;;;;;19.28;65.76;101877.34;3598163;39;20062;-63
2022/07/22 06:45:04;;;;;;;4.65;2.33;;;;;;;19.32;63.13;101878.84;3599538;39;20116;-64
2022/07/22 06:47:30;;;;;;;4.03;2.58;;;;;;;19.36;62.41;101882.19;3600341;39;20124;-64
2022/07/22 06:49:56;;;;;;;10.05;3.50;;;;;;;19.43;63.67;101877.94;3598608;39;20063;-64
2022/07/22 06:52:21;;;;;;;6.05;3.55;;;;;;;19.57;65.76;101880.41;3598512;39;20451;-64
2022/07/22 06:54:47;;;;;;;8.98;3.40;;;;;;;19.61;63.76;101875.56;3598200;39;20067;-64
2022/07/22 06:57:12;;;;;;;4.57;2.80;;;;;;;19.78;62.75;101876.91;3598625;39;20076;-64
2022/07/22 06:59:38;;;;;;;8.05;3.28;;;;;;;19.90;64.32;101875.88;3597011;39;20062;-64
2022/07/22 07:02:03;;;;;;;6.75;2.70;;;;;;;20.06;61.03;101892.66;3597147;39;20101;-64
2022/07/22 07:04:29;;;;;;;6.72;3.70;;;;;;;20.20;63.25;101880.56;3598829;39;20050;-63
2022/07/22 07:06:55;;;;;;;5.38;2.80;;;;;;;20.26;60.43;101879.16;3595541;39;20382;-63
2022/07/22 07:09:20;;;;;;;4.38;2.10;;;;;;;20.26;59.81;101893.69;3599038;39;20398;-64
2022/07/22 07:11:46;;;;;;;4.97;2.40;;;;;;;20.21;59.59;101878.72;3597751;39;20051;-64
2022/07/22 07:14:12;;;;;;;9.32;2.70;;;;;;;20.24;60.80;101873.00;3597940;39;20063;-64
2022/07/22 07:16:37;;;;;;;2.90;1.77;;;;;;;20.37;58.74;101873.66;3598115;39;20051;-64
2022/07/22 07:19:03;;;;;;;5.00;1.83;;;;;;;20.48;58.01;101868.09;3597303;39;20363;-64
2022/07/22 07:21:29;;;;;;;4.00;1.63;;;;;;;20.60;55.72;101863.47;3597373;39;20294;-64
2022/07/22 07:23:55;;;;;;;4.47;1.58;;;;;;;20.72;56.44;101867.00;3600208;39;20047;-64
2022/07/22 07:26:20;;;;;;;2.75;1.52;;;;;;;20.85;54.45;101867.66;3598650;39;20051;-64
2022/07/22 07:28:46;;;;;;;2.97;1.50;;;;;;;20.97;52.33;101863.81;3600087;39;20059;-64
2022/07/22 07:31:12;;;;;;;3.22;1.30;;;;;;;20.79;52.12;101846.31;3595583;39;20050;-64
2022/07/22 07:33:38;;;;;;;3.33;1.58;;;;;;;20.84;53.04;101871.38;3598032;39;20048;-64
2022/07/22 07:36:04;;;;;;;2.58;1.10;;;;;;;20.89;53.40;101874.56;3596337;39;20055;-64
2022/07/22 07:38:30;;;;;;;4.50;1.45;;;;;;;20.90;53.66;101873.59;3597226;39;20290;-64
2022/07/22 07:40:56;;;;;;;2.38;1.27;;;;;;;20.74;53.38;101840.41;3599418;39;20047;-64
2022/07/22 07:43:22;;;;;;;3.13;1.38;;;;;;;20.94;52.33;101860.50;3598681;39;20071;-64
2022/07/22 07:45:48;;;;;;;6.72;1.67;;;;;;;21.05;53.27;101855.78;3591494;39;20079;-64
2022/07/22 07:48:14;;;;;;;3.03;1.85;;;;;;;21.19;54.05;101842.75;3598166;39;20467;-64
2022/07/22 07:50:39;;;;;;;3.50;1.60;;;;;;;21.65;53.55;101861.31;3600500;39;20051;-64
2022/07/22 07:53:05;;;;;;;4.45;1.52;;;;;;;21.56;52.53;101823.84;3597927;39;20040;-64
2022/07/22 07:55:32;;;;;;;2.20;1.58;;;;;;;21.93;52.04;101859.59;3598411;39;20112;-64
2022/07/22 07:57:58;;;;;;;2.45;1.63;;;;;;;22.12;51.33;101863.34;3598534;39;20057;-64
2022/07/22 08:00:28;;;;;;;2.33;1.30;;;;;;;22.42;50.83;101860.47;3597799;39;20071;-65
2022/07/22 08:02:55;;;;;;;2.42;1.70;;;;;;;22.61;48.64;101864.16;3595788;39;20055;-64
2022/07/22 08:05:21;;;;;;;3.58;1.42;;;;;;;22.75;48.58;101860.97;3597665;39;20051;-65
2022/07/22 08:07:48;;;;;;;2.72;1.75;;;;;;;22.80;50.01;101858.63;3596432;39;20121;-65
2022/07/22 08:10:14;;;;;;;4.30;2.25;;;;;;;22.72;51.96;101858.53;3598149;39;20148;-64
2022/07/22 08:12:40;;;;;;;5.00;2.22;;;;;;;22.58;52.12;101858.97;3598577;39;20374;-64
2022/07/22 08:15:07;;;;;;;6.97;2.40;;;;;;;22.36;53.02;101849.22;3597878;39;20051;-64
2022/07/22 08:17:34;;;;;;;5.32;1.90;;;;;;;22.47;52.51;101851.81;3587768;39;20377;-64
2022/07/22 08:19:59;;;;;;;4.55;1.88;;;;;;;22.45;52.09;101848.34;3597913;39;20369;-64
2022/07/22 08:22:25;;;;;;;2.92;1.73;;;;;;;22.17;51.64;101850.09;3601318;39;20040;-64
2022/07/22 08:24:51;;;;;;;4.15;1.70;;;;;;;21.96;52.41;101859.31;3598983;39;20048;-64
2022/07/22 08:27:16;;;;;;;3.15;1.80;;;;;;;21.87;52.85;101854.69;3597834;39;20078;-64
2022/07/22 08:29:42;;;;;;;2.90;1.80;;;;;;;21.74;53.36;101854.13;3597438;39;20063;-64
2022/07/22 08:32:08;;;;;;;3.00;1.65;;;;;;;21.60;53.30;101862.72;3586122;39;20062;-63
2022/07/22 08:34:35;;;;;;;2.95;1.90;;;;;;;21.41;53.32;101838.94;3596188;39;20164;-64
2022/07/22 08:37:00;;;;;;;3.03;1.75;;;;;;;21.37;52.74;101859.38;3597777;39;20374;-64
2022/07/22 08:39:26;;;;;;;3.95;1.45;;;;;;;21.31;54.08;101850.72;3596349;39;20065;-63
2022/07/22 08:41:53;;;;;;;2.85;1.65;;;;;;;21.22;53.21;101845.22;3596049;39;20055;-63
2022/07/22 08:44:19;;;;;;;5.70;1.80;;;;;;;21.18;54.03;101843.75;3599449;39;20641;-65
2022/07/22 08:46:46;;;;;;;3.38;1.70;;;;;;;21.20;54.29;101841.75;3596867;39;20063;-65
2022/07/22 08:49:16;;;;;;;2.85;1.50;;;;;;;21.30;52.43;101846.22;3596917;39;20291;-62
2022/07/22 08:51:42;;;;;;;2.65;1.70;;;;;;;21.69;53.79;101843.63;3597831;39;20076;-64
2022/07/22 08:54:09;;;;;;;6.00;1.90;;;;;;;22.22;51.06;101843.19;3594557;39;20287;-64
2022/07/22 08:56:34;;;;;;;3.70;1.80;;;;;;;22.46;50.88;101845.47;3598149;39;20081;-63
2022/07/22 08:59:00;;;;;;;2.50;1.80;;;;;;;22.41;51.00;101842.28;3597377;39;20086;-64
2022/07/22 09:01:26;;;;;;;3.83;2.00;;;;;;;22.29;50.46;101846.19;3597544;39;20051;-63
2022/07/22 09:03:56;;;;;;;3.50;1.88;;;;;;;22.18;50.96;101841.75;3594509;39;20078;-64
2022/07/22 09:06:27;;;;;;;4.50;2.05;;;;;;;22.00;50.82;101847.06;3596820;39;20053;-63
2022/07/22 09:09:03;;;;;;;4.35;1.98;;;;;;;21.90;52.08;101848.06;3596584;39;20059;-63
2022/07/22 09:11:31;;;;;;;3.15;1.73;;;;;;;21.81;53.11;101844.31;3598634;39;20087;-63
2022/07/22 09:14:00;;;;;;;4.53;2.15;;;;;;;21.56;53.64;101824.69;3596795;39;20058;-63
2022/07/22 09:16:39;;;;;;;2.67;1.80;;;;;;;21.59;54.18;101839.13;3599529;39;20051;-64
2022/07/22 09:19:05;;;;;;;3.35;2.15;;;;;;;21.52;54.18;101838.81;3597804;39;20059;-65
2022/07/22 09:21:31;;;;;;;5.18;1.75;;;;;;;21.48;53.45;101838.25;3597300;39;20056;-64
2022/07/22 09:23:57;;;;;;;5.45;1.95;;;;;;;21.52;53.38;101841.56;3595149;39;20562;-65
2022/07/22 09:26:38;;;;;;;3.70;1.70;;;;;;;21.52;53.32;101834.22;3596500;39;20055;-64
2022/07/22 09:29:06;;;;;;;5.40;2.13;;;;;;;21.53;51.80;101829.59;3596317;39;20092;-65
2022/07/22 09:31:36;;;;;;;1.52;1.40;;;;;;;21.50;52.58;101830.78;3597267;39;20120;-64
2022/07/22 09:34:04;;;;;;;4.13;1.83;;;;;;;21.45;53.07;101833.06;3596606;39;20081;-65
2022/07/22 09:36:30;;;;;;;2.72;1.63;;;;;;;21.43;52.30;101828.72;3598899;39;20140;-65
2022/07/22 09:38:57;;;;;;;4.60;1.95;;;;;;;21.51;52.01;101832.50;3586818;39;20060;-65
2022/07/22 09:41:23;;;;;;;4.28;1.90;;;;;;;21.59;53.01;101830.91;3597724;39;20062;-64
2022/07/22 09:43:50;;;;;;;3.40;2.35;;;;;;;21.70;51.58;101819.84;3598096;39;20071;-65
2022/07/22 09:46:15;;;;;;;2.75;1.73;;;;;;;21.86;53.48;101820.13;3596060;39;20067;-65
2022/07/22 09:48:42;;;;;;;3.30;1.83;;;;;;;22.21;53.12;101818.69;3597333;39;20059;-65
2022/07/22 09:51:08;;;;;;;5.22;2.30;;;;;;;22.78;49.97;101815.94;3595385;39;20066;-65
2022/07/22 09:53:34;;;;;;;3.22;1.98;;;;;;;23.05;49.92;101818.72;3600871;39;20064;-65
2022/07/22 09:56:05;;;;;;;2.85;1.80;;;;;;;22.88;49.54;101823.09;3596035;39;20356;-65
2022/07/22 09:58:31;;;;;;;2.72;1.85;;;;;;;22.81;49.43;101816.50;3595936;39;20063;-65
2022/07/22 10:01:05;;;;;;;5.63;2.08;;;;;;;22.70;49.02;101824.91;3595607;39;20339;-64
2022/07/22 10:03:36;;;;;;;2.65;2.15;;;;;;;22.63;50.68;101821.03;3594499;39;20066;-64
2022/07/22 10:06:05;;;;;;;3.10;1.80;;;;;;;22.66;50.54;101812.50;3585994;39;20047;-65
2022/07/22 10:08:32;;;;;;;4.55;1.92;;;;;;;22.67;49.22;101825.19;3594873;39;20087;-65
2022/07/22 10:11:05;;;;;;;4.53;2.70;;;;;;;22.81;48.94;101827.47;3595450;39;20058;-65
2022/07/22 10:13:32;;;;;;;;;;;;;;;22.93;48.14;101829.03;3596750;39;20131;-65
2022/07/22 10:16:00;;;;;;;3.90;2.45;;;;;;;22.90;47.88;101821.09;3596363;39;19935;-64
2022/07/22 10:18:29;;;;;;;4.88;2.08;;;;;;;23.07;50.21;101819.44;3596729;39;20327;-63
2022/07/22 10:21:09;;;;;;;2.65;1.67;;;;;;;23.50;48.00;101817.88;3596635;39;20568;-63
2022/07/22 10:23:56;;;;;;;4.65;1.80;;;;;;;24.03;46.22;101818.91;3598414;39;20087;-64
2022/07/22 10:26:47;;;;;;;2.20;1.67;;;;;;;24.59;44.46;101820.41;3596039;39;20059;-65
2022/07/22 10:29:44;;;;;;;5.28;2.17;;;;;;;24.62;45.77;101819.22;3596066;39;20333;-65
2022/07/22 10:32:15;;;;;;;5.60;2.50;;;;;;;24.50;45.70;101821.38;3595973;39;20048;-64
2022/07/22 10:34:57;;;;;;;3.38;2.28;;;;;;;24.43;45.38;101814.81;3595841;39;20043;-65
2022/07/22 10:37:34;;;;;;;3.53;2.20;;;;;;;24.36;46.44;101821.91;3595567;39;20051;-65
2022/07/22 10:40:21;;;;;;;3.13;2.33;;;;;;;24.17;45.36;101832.09;3595620;39;20369;-65
2022/07/22 10:43:09;;;;;;;4.93;2.08;;;;;;;23.98;46.79;101813.06;3594947;39;20062;-65
2022/07/22 10:45:55;;;;;;;3.67;2.60;;;;;;;23.99;45.71;101825.75;3588775;39;20056;-64
2022/07/22 10:48:45;;;;;;;6.13;2.67;;;;;;;23.90;47.21;101815.72;3598208;39;20223;-65
2022/07/22 10:51:20;;;;;;;8.07;2.92;;;;;;;24.07;45.34;101810.22;3598015;39;20185;-65
2022/07/22 10:53:54;;;;;;;4.15;2.10;;;;;;;24.16;45.44;101720.44;3598589;39;20050;-65
2022/07/22 10:56:29;;;;;;;2.85;2.47;;;;;;;25.10;44.71;101807.59;3599516;39;20282;-65
2022/07/22 10:59:16;;;;;;;3.78;2.30;;;;;;;25.32;45.72;101803.38;3596839;39;20051;-64
2022/07/22 11:01:46;;;;;;;3.47;2.50;;;;;;;25.60;45.69;101803.97;3596000;39;20128;-65
2022/07/22 11:04:17;;;;;;;4.63;2.40;;;;;;;25.79;43.13;101799.19;3597226;39;20368;-65
2022/07/22 11:06:45;;;;;;;4.57;2.33;;;;;;;25.75;43.10;101798.63;3596444;39;20285;-65
2022/07/22 11:09:15;;;;;;;4.38;2.80;;;;;;;25.59;45.31;101801.38;3596485;39;20746;-65
2022/07/22 11:11:44;;;;;;;3.75;2.40;;;;;;;25.33;43.98;101801.50;3597364;39;20043;-64
2022/07/22 11:14:35;;;;;;;4.68;2.65;;;;;;;24.96;45.32;101798.06;3598475;39;20166;-64
2022/07/22 11:17:10;;;;;;;3.30;2.50;;;;;;;24.71;43.79;101799.84;3598817;39;20127;-64
2022/07/22 11:19:38;;;;;;;4.22;2.63;;;;;;;24.56;43.17;101798.72;3597751;39;20063;-64
2022/07/22 11:22:13;;;;;;;3.90;2.72;;;;;;;24.47;44.22;101799.69;3595161;39;20110;-64